Time;durP1;ratioP1;P1;durP2;ratioP2;P2;SDS_P1;SDS_P2;PMS_P1;PMS_P2;Temp;Humidity;BMP_temperature;BMP_pressure;BME280_temperature;BME280_humidity;BME280_pressure;Samples;Min_cycle;Max_cycle;Signal;HPM_P1;HPM_P2
2022/06/07 00:00:34;;;;;;;4.40;1.20;;;;;;;15.43;64.81;100353.81;5051723;28;20024;-89
2022/06/07 00:03:00;;;;;;;2.95;1.05;;;;;;;15.28;65.13;100352.53;5052086;28;20179;-90
2022/06/07 00:05:26;;;;;;;6.25;1.00;;;;;;;15.38;65.53;100350.75;5052989;28;20024;-89
2022/06/07 00:07:54;;;;;;;4.88;1.27;;;;;;;15.52;64.58;100346.00;5052858;28;20490;-89
2022/06/07 00:10:20;;;;;;;12.75;1.80;;;;;;;15.01;65.76;100346.06;5052913;28;20029;-89
2022/06/07 00:12:46;;;;;;;4.32;0.90;;;;;;;15.25;65.74;100350.16;5052777;28;20029;-89
2022/06/07 00:15:11;;;;;;;4.57;1.10;;;;;;;15.33;65.03;100338.91;5053191;28;20043;-89
2022/06/07 00:17:37;;;;;;;3.75;1.10;;;;;;;15.34;64.67;100332.63;5052724;28;20039;-89
2022/06/07 00:20:03;;;;;;;5.65;1.45;;;;;;;14.98;65.55;100337.56;5051370;28;20378;-89
2022/06/07 00:22:28;;;;;;;3.10;1.15;;;;;;;15.03;64.98;100336.19;5052587;28;20494;-89
2022/06/07 00:24:54;;;;;;;3.15;1.42;;;;;;;14.98;65.46;100330.44;5050347;28;20045;-89
2022/06/07 00:27:19;;;;;;;2.55;1.00;;;;;;;15.00;65.61;100336.44;5052666;28;20033;-89
2022/06/07 00:29:46;;;;;;;3.92;1.33;;;;;;;14.95;65.44;100333.38;5051301;28;20495;-90
2022/06/07 00:32:13;;;;;;;2.22;1.13;;;;;;;14.92;66.00;100323.06;5052043;28;20029;-89
2022/06/07 00:34:39;;;;;;;2.22;0.95;;;;;;;15.07;65.92;100329.66;5051137;28;20017;-89
2022/06/07 00:37:05;;;;;;;4.85;1.70;;;;;;;14.86;65.60;100324.44;5052375;28;20294;-89
2022/06/07 00:39:30;;;;;;;5.72;1.20;;;;;;;14.84;65.56;100320.25;5052340;28;20021;-89
2022/06/07 00:41:55;;;;;;;1.80;1.00;;;;;;;15.04;65.21;100316.69;5050911;28;20123;-89
2022/06/07 00:44:21;;;;;;;3.58;1.10;;;;;;;15.08;65.05;100312.81;5052163;28;20403;-89
2022/06/07 00:46:48;;;;;;;1.98;1.17;;;;;;;15.03;65.03;100308.91;5052109;28;20108;-89
2022/06/07 00:49:18;;;;;;;5.80;1.52;;;;;;;15.06;65.23;100305.97;5052212;28;20040;-89
2022/06/07 00:51:46;;;;;;;3.47;1.00;;;;;;;14.90;65.99;100314.44;5052288;28;20017;-89
2022/06/07 00:54:21;;;;;;;1.83;0.90;;;;;;;15.16;65.26;100311.28;5047723;28;20057;-89
2022/06/07 00:56:46;;;;;;;3.70;1.05;;;;;;;15.14;65.42;100310.59;5052151;28;20021;-90
2022/06/07 00:59:11;;;;;;;0.75;0.75;;;;;;;15.08;64.95;100296.09;5052078;28;20039;-90
2022/06/07 01:01:37;;;;;;;1.67;0.75;;;;;;;15.07;65.42;100300.56;5051782;28;20028;-91
2022/06/07 01:04:02;;;;;;;3.25;1.20;;;;;;;15.10;66.04;100301.25;5052062;28;20475;-88
2022/06/07 01:11:55;;;;;;;1.42;0.90;;;;;;;15.19;66.44;100303.09;5051804;28;20032;-90
2022/06/07 01:14:21;;;;;;;1.30;0.55;;;;;;;15.20;66.35;100308.22;5051758;28;20021;-90
2022/06/07 01:16:46;;;;;;;2.45;1.13;;;;;;;15.14;66.15;100295.56;5051883;28;20025;-90
2022/06/07 01:19:12;;;;;;;3.03;0.60;;;;;;;15.13;66.33;100309.75;5051794;28;20035;-90
2022/06/07 01:21:40;;;;;;;3.17;1.00;;;;;;;15.21;65.66;100309.09;5050136;28;20074;-89
2022/06/07 01:24:06;;;;;;;2.30;0.93;;;;;;;15.03;66.13;100301.81;5042021;28;20055;-90
2022/06/07 01:26:31;;;;;;;3.70;1.20;;;;;;;15.05;65.90;100289.28;5030473;28;20021;-90
2022/06/07 01:28:57;;;;;;;4.43;1.05;;;;;;;14.95;66.17;100292.88;5033778;28;20487;-89
2022/06/07 01:31:22;;;;;;;1.52;1.05;;;;;;;14.94;66.09;100284.09;5031610;28;20033;-90
2022/06/07 01:33:47;;;;;;;3.35;0.90;;;;;;;15.06;66.30;100287.47;5031959;28;20029;-89
2022/06/07 01:36:17;;;;;;;1.83;1.00;;;;;;;14.97;66.32;100288.28;5031587;28;20480;-90
2022/06/07 01:38:45;;;;;;;8.80;1.40;;;;;;;14.67;66.76;100282.94;5031631;28;20122;-90
2022/06/07 01:43:56;;;;;;;2.65;0.88;;;;;;;14.94;66.60;100280.63;5031879;28;20092;-90
2022/06/07 01:46:22;;;;;;;3.50;1.60;;;;;;;14.88;66.40;100276.72;5030328;28;20466;-90
2022/06/07 01:48:48;;;;;;;3.38;1.10;;;;;;;14.97;66.22;100277.69;5031675;28;20032;-90
2022/06/07 01:51:15;;;;;;;5.00;1.50;;;;;;;14.63;66.89;100276.25;5031520;28;20030;-90
2022/06/07 01:53:41;;;;;;;5.32;1.30;;;;;;;15.08;65.21;100277.59;5043934;28;20037;-90
2022/06/07 01:56:09;;;;;;;3.22;1.95;;;;;;;15.13;65.29;100269.28;5051642;28;20364;-90
2022/06/07 01:58:34;;;;;;;2.15;1.27;;;;;;;14.07;67.38;100264.25;5051367;28;20029;-90
2022/06/07 02:01:00;;;;;;;2.60;1.00;;;;;;;13.89;68.56;100261.38;5051533;28;20021;-90
2022/06/07 02:03:26;;;;;;;3.97;1.13;;;;;;;14.00;68.72;100268.41;5051320;28;20460;-90
2022/06/07 02:06:00;;;;;;;4.95;1.25;;;;;;;14.00;68.82;100260.47;5050446;28;20029;-90
2022/06/07 02:08:27;;;;;;;1.85;0.88;;;;;;;14.11;68.88;100262.19;5051514;28;20092;-90
2022/06/07 02:10:53;;;;;;;4.28;1.08;;;;;;;14.16;68.65;100246.81;5051567;28;20029;-90
2022/06/07 02:13:19;;;;;;;5.60;1.25;;;;;;;14.28;68.74;100253.66;5051388;28;20036;-90
2022/06/07 02:15:45;;;;;;;4.50;1.13;;;;;;;14.58;67.63;100253.81;5050118;28;20474;-90
2022/06/07 02:18:11;;;;;;;2.65;1.08;;;;;;;14.57;68.04;100244.22;5051391;28;20025;-90
2022/06/07 02:20:37;;;;;;;2.72;1.17;;;;;;;14.70;67.30;100251.91;5051191;28;20380;-90
2022/06/07 02:23:02;;;;;;;2.83;1.27;;;;;;;14.61;67.22;100245.63;5043096;28;20029;-90
2022/06/07 02:25:29;;;;;;;3.13;1.33;;;;;;;14.57;67.65;100245.03;5032160;28;20434;-90
2022/06/07 02:27:54;;;;;;;3.95;1.20;;;;;;;14.58;67.29;100240.63;5034480;28;20030;-90
2022/06/07 02:30:20;;;;;;;3.00;1.40;;;;;;;14.49;67.74;100247.50;5052700;28;20167;-90
2022/06/07 02:32:46;;;;;;;2.65;1.27;;;;;;;14.37;67.28;100245.91;5053319;28;20384;-90
2022/06/07 02:35:12;;;;;;;2.80;1.10;;;;;;;14.32;67.79;100240.22;5054559;28;20036;-90
2022/06/07 02:37:38;;;;;;;3.63;1.27;;;;;;;14.15;68.04;100244.28;5047038;28;20118;-90
2022/06/07 02:40:07;;;;;;;3.50;1.30;;;;;;;13.98;68.63;100240.44;5034723;28;20028;-89
2022/06/07 02:42:33;;;;;;;2.13;1.25;;;;;;;13.80;68.66;100235.78;5034395;28;20076;-90
2022/06/07 02:44:59;;;;;;;4.20;1.33;;;;;;;13.85;68.54;100241.47;5034625;28;20029;-90
2022/06/07 02:47:25;;;;;;;3.85;1.48;;;;;;;13.89;69.15;100237.63;5033405;28;20056;-90
2022/06/07 02:49:52;;;;;;;2.63;1.10;;;;;;;13.84;68.31;100231.91;5034454;28;20030;-90
2022/06/07 02:52:18;;;;;;;1.33;1.20;;;;;;;13.95;68.85;100238.06;5035252;28;20033;-90
2022/06/07 02:54:43;;;;;;;4.65;1.40;;;;;;;13.95;68.83;100232.78;5052958;28;20029;-90
2022/06/07 02:57:09;;;;;;;3.50;1.67;;;;;;;13.97;69.14;100230.88;5052892;28;20040;-90
2022/06/07 02:59:34;;;;;;;4.10;1.20;;;;;;;13.99;69.06;100223.66;5054374;28;20033;-90
2022/06/07 03:02:00;;;;;;;3.10;1.10;;;;;;;13.86;68.43;100235.25;5053998;28;20115;-90
2022/06/07 03:04:26;;;;;;;5.47;1.73;;;;;;;13.55;69.74;100229.06;5054166;28;20104;-90
2022/06/07 03:06:52;;;;;;;3.63;2.00;;;;;;;13.18;71.20;100236.50;5054404;28;20033;-90
2022/06/07 03:09:17;;;;;;;6.43;1.90;;;;;;;13.17;71.01;100240.94;5054014;28;20446;-90
2022/06/07 03:11:43;;;;;;;3.50;1.48;;;;;;;13.20;71.11;100242.50;5054109;28;20025;-90
2022/06/07 03:14:09;;;;;;;5.50;1.77;;;;;;;13.23;71.38;100242.22;5053937;28;20018;-90
2022/06/07 03:16:34;;;;;;;2.63;1.70;;;;;;;13.26;72.05;100241.97;5052609;28;20175;-90
2022/06/07 03:19:00;;;;;;;4.65;1.60;;;;;;;13.27;71.41;100238.41;5052561;28;20113;-90
2022/06/07 03:21:25;;;;;;;3.85;1.38;;;;;;;13.24;71.74;100249.19;5053938;28;20059;-90
2022/06/07 03:23:51;;;;;;;1.85;1.45;;;;;;;13.22;71.71;100238.75;5053371;28;20072;-90
2022/06/07 03:26:16;;;;;;;2.45;1.20;;;;;;;13.26;71.78;100231.44;5053643;28;20025;-90
2022/06/07 03:28:42;;;;;;;1.30;1.13;;;;;;;13.60;69.80;100233.94;5052486;28;20441;-89
2022/06/07 03:31:13;;;;;;;1.63;1.33;;;;;;;13.51;69.81;100239.97;5052271;28;20116;-90
2022/06/07 03:33:42;;;;;;;2.90;1.77;;;;;;;13.41;70.65;100238.13;5053538;28;20459;-90
2022/06/07 03:36:18;;;;;;;1.73;1.17;;;;;;;13.57;69.64;100231.59;5053417;28;20025;-90
2022/06/07 03:38:44;;;;;;;4.00;2.05;;;;;;;13.57;69.40;100234.22;5052706;28;20391;-90
2022/06/07 03:41:16;;;;;;;2.97;1.52;;;;;;;13.61;69.19;100246.19;5052051;28;20071;-90
2022/06/07 03:43:41;;;;;;;;;;;;;;;13.43;69.23;100238.00;5052501;28;20064;-90
2022/06/07 03:46:09;;;;;;;4.43;1.73;;;;;;;13.31;69.57;100237.22;5053359;28;19952;-90
2022/06/07 03:48:35;;;;;;;1.70;1.33;;;;;;;13.39;69.88;100236.56;5053266;28;20624;-90
2022/06/07 03:51:00;;;;;;;1.63;1.13;;;;;;;13.41;69.69;100230.22;5053221;28;20029;-90
2022/06/07 03:53:25;;;;;;;3.70;1.25;;;;;;;13.46;69.91;100235.09;5051305;28;20061;-90
2022/06/07 03:55:53;;;;;;;3.67;1.65;;;;;;;13.51;69.83;100224.16;5053361;28;20053;-90
2022/06/07 03:58:18;;;;;;;3.55;1.02;;;;;;;13.56;69.67;100232.53;5053209;28;20036;-90
2022/06/07 04:00:44;;;;;;;3.70;1.67;;;;;;;13.47;69.55;100223.59;5053084;28;20029;-91
2022/06/07 04:03:10;;;;;;;2.97;1.40;;;;;;;13.44;69.17;100229.94;5053043;28;20147;-90
2022/06/07 04:05:41;;;;;;;3.83;1.63;;;;;;;13.30;69.80;100232.88;5051657;28;20049;-90
2022/06/07 04:08:12;;;;;;;2.30;1.40;;;;;;;13.47;69.36;100234.97;5053035;28;20442;-90
2022/06/07 04:11:04;;;;;;;6.03;1.65;;;;;;;13.43;69.58;100223.00;5051404;28;20028;-90
2022/06/07 04:13:31;;;;;;;7.93;1.85;;;;;;;13.41;69.22;100214.38;5049586;28;20498;-90
2022/06/07 04:15:56;;;;;;;2.10;1.20;;;;;;;13.43;69.76;100215.09;5052865;28;20036;-90
2022/06/07 04:18:23;;;;;;;3.17;1.60;;;;;;;13.49;69.68;100214.59;5051518;28;20017;-90
2022/06/07 04:20:48;;;;;;;1.88;1.02;;;;;;;13.48;69.45;100214.69;5051291;28;20104;-90
2022/06/07 04:23:17;;;;;;;1.35;1.05;;;;;;;13.55;69.92;100215.88;5037630;28;20124;-90
2022/06/07 04:25:43;;;;;;;2.00;1.27;;;;;;;13.59;70.00;100205.91;5032606;28;20472;-90
2022/06/07 04:28:08;;;;;;;3.83;2.03;;;;;;;13.61;69.64;100202.16;5032457;28;20080;-91
2022/06/07 04:30:34;;;;;;;4.97;1.60;;;;;;;13.69;69.60;100201.53;5032534;28;20025;-91
2022/06/07 04:33:00;;;;;;;1.52;1.25;;;;;;;13.64;69.37;100201.06;5032536;28;20037;-90
2022/06/07 04:35:26;;;;;;;3.88;1.50;;;;;;;13.73;69.39;100202.13;5032413;28;20028;-90
2022/06/07 04:37:53;;;;;;;1.95;1.33;;;;;;;13.76;69.02;100201.84;5032453;28;20066;-90
2022/06/07 04:40:19;;;;;;;1.90;1.25;;;;;;;13.76;68.74;100200.03;5032494;28;20030;-91
2022/06/07 04:42:44;;;;;;;3.55;1.70;;;;;;;13.85;69.35;100198.44;5032518;28;20040;-90
2022/06/07 04:45:14;;;;;;;3.35;1.77;;;;;;;13.93;69.35;100195.97;5031105;28;20057;-91
2022/06/07 04:47:40;;;;;;;6.07;2.15;;;;;;;13.94;69.03;100210.00;5032164;28;20029;-90
2022/06/07 04:50:08;;;;;;;2.35;1.20;;;;;;;13.88;68.92;100206.94;5030601;28;20563;-89
2022/06/07 04:52:34;;;;;;;3.08;1.67;;;;;;;13.71;68.98;100202.22;5039397;28;20043;-90
2022/06/07 04:54:59;;;;;;;3.03;1.50;;;;;;;13.73;69.18;100197.66;5052184;28;20104;-90
2022/06/07 04:57:24;;;;;;;1.63;1.52;;;;;;;13.82;69.29;100201.31;5050876;28;20025;-90
2022/06/07 04:59:50;;;;;;;4.13;1.45;;;;;;;13.95;68.87;100198.47;5052042;28;20056;-90
2022/06/07 05:02:15;;;;;;;1.27;1.00;;;;;;;14.00;68.69;100202.41;5051790;28;20036;-90
2022/06/07 05:04:41;;;;;;;2.55;1.33;;;;;;;13.96;68.56;100205.41;5052073;28;20390;-90
2022/06/07 05:07:06;;;;;;;3.83;1.45;;;;;;;13.81;69.90;100203.13;5052047;28;20563;-91
2022/06/07 05:09:32;;;;;;;2.80;1.38;;;;;;;13.94;70.37;100199.44;5051975;28;20516;-91
2022/06/07 05:11:58;;;;;;;1.73;1.20;;;;;;;14.16;69.61;100203.69;5051820;28;20025;-91
2022/06/07 05:14:23;;;;;;;4.90;1.92;;;;;;;14.12;70.37;100203.16;5051728;28;20399;-91
2022/06/07 05:16:50;;;;;;;2.85;1.60;;;;;;;14.27;69.99;100198.34;5050511;28;20033;-91
2022/06/07 05:19:16;;;;;;;4.00;1.48;;;;;;;14.39;69.40;100207.81;5052129;28;20024;-90
2022/06/07 05:21:42;;;;;;;2.10;1.60;;;;;;;14.44;69.39;100210.09;5047541;28;20166;-90
2022/06/07 05:24:08;;;;;;;3.25;1.75;;;;;;;14.53;69.61;100213.72;5031676;28;20068;-90
2022/06/07 05:26:40;;;;;;;3.50;1.92;;;;;;;14.60;69.63;100220.19;5031922;28;20092;-90
2022/06/07 05:29:10;;;;;;;3.88;2.05;;;;;;;14.72;69.43;100227.03;5030535;28;20021;-90
2022/06/07 05:31:35;;;;;;;2.38;1.33;;;;;;;14.77;69.29;100227.47;5031691;28;20025;-91
2022/06/07 05:34:01;;;;;;;2.72;1.58;;;;;;;14.94;69.63;100225.94;5031952;28;20361;-89
2022/06/07 05:36:27;;;;;;;1.58;1.42;;;;;;;15.03;69.17;100225.13;5031662;28;20017;-90
2022/06/07 05:38:53;;;;;;;3.25;1.52;;;;;;;15.15;68.95;100222.38;5031686;28;20021;-90
2022/06/07 05:41:24;;;;;;;3.60;2.00;;;;;;;15.26;69.24;100220.44;5030521;28;20053;-90
2022/06/07 05:43:50;;;;;;;4.38;2.50;;;;;;;15.32;68.79;100221.66;5043585;28;20025;-90
2022/06/07 05:46:15;;;;;;;6.40;2.33;;;;;;;15.49;68.24;100225.41;5051357;28;20083;-90
2022/06/07 05:48:41;;;;;;;3.45;2.10;;;;;;;15.57;68.20;100232.66;5051589;28;20025;-91
2022/06/07 05:51:06;;;;;;;4.20;1.90;;;;;;;15.68;68.51;100235.16;5050523;28;20052;-91
2022/06/07 05:53:31;;;;;;;2.92;2.08;;;;;;;15.83;68.11;100241.69;5050114;28;20087;-90
2022/06/07 05:56:04;;;;;;;2.67;1.80;;;;;;;15.96;67.86;100233.47;5051511;28;20048;-91
2022/06/07 05:58:29;;;;;;;6.35;2.25;;;;;;;16.03;67.45;100231.06;5051451;28;20077;-90
2022/06/07 06:00:54;;;;;;;4.45;2.10;;;;;;;16.14;68.01;100230.91;5053094;28;20037;-90
2022/06/07 06:03:20;;;;;;;3.30;2.83;;;;;;;16.23;67.75;100224.75;5054752;28;20021;-90
2022/06/07 06:05:46;;;;;;;3.05;2.03;;;;;;;16.38;67.70;100224.25;5049330;28;20029;-91
2022/06/07 06:11:23;;;;;;;3.85;3.00;;;;;;;16.77;67.17;100226.72;5054454;28;20394;-90
2022/06/07 06:13:49;;;;;;;3.95;2.70;;;;;;;17.09;66.33;100225.41;5048099;28;20037;-89
2022/06/07 06:16:20;;;;;;;3.22;2.55;;;;;;;17.44;65.29;100229.88;5050035;28;20147;-91
2022/06/07 06:18:47;;;;;;;5.70;2.60;;;;;;;18.09;63.26;100218.91;5049366;28;20159;-90
2022/06/07 06:21:13;;;;;;;5.05;2.30;;;;;;;18.71;62.02;100225.81;5050850;28;20048;-91
2022/06/07 06:23:38;;;;;;;4.43;2.03;;;;;;;18.69;61.05;100220.66;5048177;28;20484;-91
2022/06/07 06:26:09;;;;;;;2.85;1.88;;;;;;;19.58;59.69;100228.97;5048682;28;20175;-89
2022/06/07 06:28:35;;;;;;;2.95;1.52;;;;;;;20.31;57.48;100229.84;5050747;28;20107;-90
2022/06/07 06:31:06;;;;;;;2.92;1.50;;;;;;;23.33;49.08;100222.69;5049287;28;20437;-90
2022/06/07 06:33:37;;;;;;;4.05;1.25;;;;;;;26.58;42.58;100219.44;5048981;28;20052;-91
2022/06/07 06:36:03;;;;;;;3.90;1.40;;;;;;;27.70;39.83;100225.16;5050321;28;20029;-92
2022/06/07 06:38:30;;;;;;;3.03;1.48;;;;;;;24.80;44.29;100242.44;5049648;28;20415;-91
2022/06/07 06:40:55;;;;;;;6.53;1.75;;;;;;;25.79;43.84;100232.88;5049079;28;20481;-90
2022/06/07 06:43:21;;;;;;;4.88;1.40;;;;;;;27.59;39.86;100226.72;5048889;28;20128;-90
2022/06/07 06:45:46;;;;;;;6.10;1.15;;;;;;;31.82;33.03;100194.69;5041109;28;20025;-89
2022/06/07 06:48:13;;;;;;;5.22;1.30;;;;;;;34.12;28.96;100180.78;5049570;28;20491;-91
2022/06/07 06:50:39;;;;;;;2.80;0.90;;;;;;;35.31;27.40;100172.63;5048374;28;20040;-91
2022/06/07 06:53:05;;;;;;;4.45;1.10;;;;;;;36.43;26.00;100188.97;5049254;28;20033;-91
2022/06/07 06:55:31;;;;;;;3.08;0.98;;;;;;;36.63;25.48;100216.19;5049583;28;20033;-92
2022/06/07 06:57:57;;;;;;;3.63;0.90;;;;;;;38.17;23.81;100187.44;5048968;28;20498;-90
2022/06/07 07:00:23;;;;;;;5.60;1.00;;;;;;;39.63;22.80;100166.50;5048881;28;20447;-91
2022/06/07 07:02:48;;;;;;;4.35;0.90;;;;;;;39.81;21.98;100215.09;5049153;28;20067;-92
2022/06/07 07:05:16;;;;;;;3.80;0.70;;;;;;;40.02;21.03;100156.97;5048634;28;20471;-91
2022/06/07 07:07:42;;;;;;;8.48;1.20;;;;;;;40.74;20.21;100111.28;5049778;28;20033;-92
2022/06/07 07:10:10;;;;;;;5.10;0.95;;;;;;;41.50;20.60;100105.75;5049258;28;20102;-93
2022/06/07 07:12:36;;;;;;;2.92;0.70;;;;;;;42.63;19.66;100163.06;5050558;28;20021;-92
2022/06/07 07:15:03;;;;;;;2.63;0.75;;;;;;;43.12;18.92;100199.56;5053783;28;20074;-92
2022/06/07 07:17:30;;;;;;;4.57;0.68;;;;;;;43.60;18.41;100122.19;5054374;28;20028;-92
2022/06/07 07:19:56;;;;;;;4.60;1.17;;;;;;;43.74;18.46;100165.09;5053316;28;20020;-92
2022/06/07 07:22:22;;;;;;;4.10;0.82;;;;;;;43.03;18.97;100192.44;5053674;28;20483;-93
2022/06/07 07:24:49;;;;;;;1.95;0.60;;;;;;;43.53;18.25;100061.91;5054277;28;20029;-93
2022/06/07 07:27:16;;;;;;;3.13;0.73;;;;;;;44.96;17.19;100096.06;5054069;28;20267;-92
2022/06/07 07:29:41;;;;;;;2.35;0.60;;;;;;;44.92;16.60;100196.47;5053883;28;20108;-91
2022/06/07 07:32:07;;;;;;;4.85;0.80;;;;;;;44.44;17.50;100136.94;5053529;28;20514;-92
2022/06/07 07:34:32;;;;;;;2.05;0.40;;;;;;;43.95;17.34;100039.84;5052548;28;20530;-91
2022/06/07 07:36:58;;;;;;;4.93;0.50;;;;;;;43.65;18.05;100122.81;5051931;28;20033;-93
2022/06/07 07:39:24;;;;;;;1.52;0.50;;;;;;;43.47;18.21;100190.34;5053097;28;20469;-92
2022/06/07 07:41:51;;;;;;;2.83;0.73;;;;;;;44.07;17.31;100089.69;5053508;28;20021;-92
2022/06/07 07:44:19;;;;;;;3.90;0.57;;;;;;;45.58;16.83;100180.91;5035749;28;20072;-93
2022/06/07 07:46:47;;;;;;;2.08;0.57;;;;;;;44.97;17.03;100134.50;5033732;28;20021;-92
2022/06/07 07:49:15;;;;;;;2.55;0.60;;;;;;;45.21;17.24;100038.72;5037354;28;20025;-92
2022/06/07 07:51:44;;;;;;;3.92;0.40;;;;;;;43.97;17.68;100059.66;5032503;28;20026;-93
2022/06/07 07:54:12;;;;;;;1.45;0.35;;;;;;;44.45;17.42;100188.34;5050716;28;20042;-93
2022/06/07 07:56:38;;;;;;;3.22;0.47;;;;;;;45.61;17.08;100199.59;5051997;28;20116;-93
2022/06/07 07:59:05;;;;;;;2.00;0.45;;;;;;;45.96;16.51;100206.66;5053248;28;20057;-93
2022/06/07 08:01:32;;;;;;;1.52;0.30;;;;;;;43.73;18.43;100157.91;5045990;28;20055;-93
2022/06/07 08:03:59;;;;;;;1.98;0.40;;;;;;;43.34;18.86;100159.06;5053075;28;20021;-92
2022/06/07 08:06:28;;;;;;;7.50;0.40;;;;;;;45.40;17.27;100151.78;5040715;28;20036;-91
2022/06/07 08:08:56;;;;;;;10.30;1.00;;;;;;;43.70;18.07;100200.03;5052003;28;20094;-92
2022/06/07 08:11:25;;;;;;;1.98;0.50;;;;;;;43.58;18.48;100197.16;5049574;28;20111;-92
2022/06/07 08:13:52;;;;;;;2.17;0.60;;;;;;;43.86;18.24;100188.41;5063633;28;20051;-92
2022/06/07 08:16:18;;;;;;;9.18;0.73;;;;;;;44.30;18.88;100175.16;5055411;28;20060;-92
2022/06/07 08:18:44;;;;;;;4.13;0.70;;;;;;;43.12;18.93;100184.94;5045770;28;20112;-94
2022/06/07 08:21:20;;;;;;;1.90;0.65;;;;;;;43.59;18.41;100184.97;5052280;28;20031;-93
2022/06/07 08:23:47;;;;;;;3.95;0.60;;;;;;;42.01;19.77;100191.69;5050719;28;20025;-92
2022/06/07 08:26:12;;;;;;;1.83;0.30;;;;;;;42.35;18.68;100196.47;5054167;28;20064;-92
2022/06/07 08:28:38;;;;;;;4.65;0.50;;;;;;;41.59;20.09;100180.16;5065004;28;20482;-92
2022/06/07 08:31:04;;;;;;;1.55;0.50;;;;;;;40.62;20.71;100191.66;5052733;28;20025;-92
2022/06/07 08:39:05;;;;;;;1.17;0.22;;;;;;;41.09;20.52;100183.94;5061581;28;20082;-92
2022/06/07 08:41:43;;;;;;;1.38;0.32;;;;;;;39.59;22.09;100179.25;5067565;28;20162;-93
2022/06/07 08:44:15;;;;;;;2.58;0.30;;;;;;;39.63;21.77;100180.25;5044255;28;20026;-93
2022/06/07 08:46:40;;;;;;;1.58;0.25;;;;;;;40.36;21.13;100172.19;5032452;28;20021;-92
2022/06/07 08:49:06;;;;;;;1.92;0.30;;;;;;;40.03;20.13;100164.06;5044329;28;20028;-92
2022/06/07 08:51:49;;;;;;;2.22;0.40;;;;;;;40.79;20.75;100163.50;5051208;28;20494;-93
2022/06/07 08:54:19;;;;;;;3.03;0.22;;;;;;;41.45;20.05;100155.47;5052343;28;20082;-93
2022/06/07 08:56:44;;;;;;;1.88;0.40;;;;;;;40.11;20.59;100157.03;5051072;28;20159;-93
2022/06/07 08:59:17;;;;;;;1.85;0.22;;;;;;;41.67;19.66;100157.38;5052450;28;20111;-92
2022/06/07 09:01:53;;;;;;;3.20;0.30;;;;;;;40.92;20.29;100157.13;5051173;28;20028;-91
2022/06/07 09:04:25;;;;;;;1.80;0.30;;;;;;;41.08;20.29;100153.97;5052148;28;20036;-92
2022/06/07 09:06:56;;;;;;;1.58;0.75;;;;;;;42.55;18.85;100148.13;5043745;28;20025;-92
2022/06/07 09:09:23;;;;;;;2.00;0.40;;;;;;;41.36;19.29;100146.38;5052303;28;20189;-92
2022/06/07 09:14:55;;;;;;;0.35;0.20;;;;;;;43.16;18.34;100133.41;5052243;28;20044;-93
2022/06/07 09:17:28;;;;;;;3.72;0.50;;;;;;;41.25;20.08;100137.56;5053857;28;20028;-92
2022/06/07 09:19:54;;;;;;;1.25;0.20;;;;;;;42.54;19.42;100138.22;5059508;28;20104;-92
2022/06/07 09:22:25;;;;;;;0.82;0.30;;;;;;;38.43;21.78;100137.75;5051947;28;20454;-92
2022/06/07 09:25:15;;;;;;;0.85;0.20;;;;;;;38.85;21.87;100141.53;5050319;28;20021;-92
2022/06/07 09:27:41;;;;;;;3.40;0.20;;;;;;;39.71;20.77;100137.50;5051252;28;20037;-93
2022/06/07 09:30:16;;;;;;;3.55;0.40;;;;;;;40.36;20.63;100140.00;5062021;28;20032;-92
2022/06/07 09:32:42;;;;;;;2.00;0.10;;;;;;;40.95;19.61;100145.47;5055621;28;20029;-92
2022/06/07 09:35:15;;;;;;;1.23;0.25;;;;;;;38.85;21.82;100141.53;5051792;28;20432;-91
2022/06/07 09:38:02;;;;;;;0.65;0.20;;;;;;;37.04;23.51;100149.44;5055972;28;20029;-92
2022/06/07 09:40:42;;;;;;;1.52;0.22;;;;;;;35.15;25.80;100146.38;5062100;28;20022;-92
2022/06/07 09:43:18;;;;;;;0.98;0.20;;;;;;;33.98;27.60;100145.88;5060738;28;20028;-92
2022/06/07 09:45:46;;;;;;;0.00;0.00;;;;;;;32.43;30.70;100139.50;5064939;28;20029;-93
2022/06/07 09:48:35;;;;;;;0.85;0.10;;;;;;;32.57;30.97;100139.94;5066772;28;20032;-92
2022/06/07 09:51:07;;;;;;;0.50;0.10;;;;;;;34.02;29.11;100137.19;5064138;28;20029;-93
2022/06/07 09:53:45;;;;;;;2.85;0.20;;;;;;;36.12;27.05;100128.97;5053980;28;20055;-92
2022/06/07 09:56:24;;;;;;;1.00;0.20;;;;;;;35.96;25.99;100135.59;5055212;28;21386;-92
2022/06/07 09:59:03;;;;;;;0.10;0.00;;;;;;;37.64;25.56;100127.25;5053836;28;20029;-91
2022/06/07 10:01:55;;;;;;;3.88;0.32;;;;;;;37.70;24.33;100124.19;5037544;28;20030;-92
2022/06/07 10:04:36;;;;;;;1.35;0.28;;;;;;;38.21;24.01;100124.63;5055797;28;20491;-91
2022/06/07 10:07:15;;;;;;;0.65;0.20;;;;;;;36.45;25.68;100121.16;5055342;28;20476;-92
2022/06/07 10:09:50;;;;;;;0.98;0.10;;;;;;;33.76;28.04;100126.19;5048608;28;20030;-93
2022/06/07 10:12:45;;;;;;;0.25;0.00;;;;;;;32.46;29.56;100127.28;5055503;28;20078;-93
2022/06/07 10:15:17;;;;;;;5.47;0.20;;;;;;;32.00;30.53;100119.44;5032705;28;20044;-92
2022/06/07 10:18:15;;;;;;;0.03;0.00;;;;;;;30.64;33.64;100121.41;5054711;28;20021;-93
2022/06/07 10:21:02;;;;;;;0.30;0.10;;;;;;;30.97;33.81;100107.13;5021546;28;20041;-93
2022/06/07 10:23:52;;;;;;;3.97;1.48;;;;;;;30.48;34.95;100112.19;5046084;28;20514;-91
2022/06/07 10:26:32;;;;;;;0.00;0.00;;;;;;;29.88;35.06;100110.75;5055336;28;20471;-94
2022/06/07 10:29:27;;;;;;;2.30;0.23;;;;;;;30.47;33.48;100101.59;5055534;28;20025;-95
2022/06/07 10:32:08;;;;;;;2.90;0.25;;;;;;;30.60;33.87;100118.38;5024498;28;20040;-96
2022/06/07 10:34:40;;;;;;;0.80;0.30;;;;;;;30.42;34.92;100107.75;5054824;28;20021;-94
2022/06/07 10:37:43;;;;;;;0.90;0.10;;;;;;;32.09;32.70;100106.25;5055728;28;20040;-94
2022/06/07 10:40:24;;;;;;;0.80;0.30;;;;;;;33.96;29.89;100096.28;5053741;28;20389;-92
2022/06/07 10:43:11;;;;;;;0.40;0.10;;;;;;;34.79;29.09;100091.03;5055484;28;20029;-95
2022/06/07 10:45:39;;;;;;;1.85;0.35;;;;;;;35.65;26.48;100094.75;5056289;28;20490;-94
2022/06/07 10:48:29;;;;;;;1.45;0.05;;;;;;;36.00;26.00;100092.94;5053770;28;20017;-92
2022/06/07 10:51:01;;;;;;;0.50;0.10;;;;;;;35.57;27.02;100093.41;5062418;28;20033;-90
2022/06/07 10:53:32;;;;;;;0.95;0.45;;;;;;;34.66;27.48;100093.25;5056073;28;20119;-93
2022/06/07 10:56:23;;;;;;;0.43;0.10;;;;;;;33.81;28.71;100093.53;5054595;28;20082;-94
2022/06/07 10:58:52;;;;;;;1.88;0.20;;;;;;;34.91;27.82;100099.75;5053104;28;20032;-94
2022/06/07 11:01:41;;;;;;;0.28;0.10;;;;;;;34.76;27.75;100087.78;5055976;28;20025;-95
2022/06/07 11:10:20;;;;;;;0.13;0.00;;;;;;;34.56;28.64;100085.03;5035668;28;20044;-94
2022/06/07 11:13:16;;;;;;;0.35;0.10;;;;;;;35.07;29.28;100081.47;5035840;28;20030;-95
2022/06/07 11:16:01;;;;;;;1.08;0.30;;;;;;;33.41;30.24;100085.94;5048000;28;20036;-94
2022/06/07 11:18:27;;;;;;;0.35;0.10;;;;;;;32.60;30.61;100098.66;5046129;28;20024;-93
2022/06/07 11:21:01;;;;;;;1.13;0.32;;;;;;;31.74;32.00;100097.41;5055645;28;20413;-94
2022/06/07 11:23:31;;;;;;;2.45;0.60;;;;;;;32.32;32.64;100091.56;5055082;28;20033;-94
2022/06/07 11:25:59;;;;;;;2.43;0.30;;;;;;;33.12;31.76;100092.59;5059821;28;20661;-93
2022/06/07 11:28:27;;;;;;;1.65;0.25;;;;;;;33.85;30.91;100086.47;5056235;28;20268;-94
2022/06/07 11:30:53;;;;;;;1.50;0.30;;;;;;;34.43;29.08;100091.00;5061793;28;20060;-93
2022/06/07 11:33:38;;;;;;;0.98;0.20;;;;;;;34.30;29.46;100084.16;5057073;28;20025;-93
2022/06/07 11:36:22;;;;;;;0.95;0.20;;;;;;;34.91;27.89;100078.75;5073130;28;20382;-94
2022/06/07 11:38:56;;;;;;;2.15;0.20;;;;;;;34.47;28.55;100090.19;5078555;28;20111;-92
2022/06/07 11:41:36;;;;;;;3.08;0.20;;;;;;;34.00;28.69;100088.41;5071080;28;20040;-91
2022/06/07 11:44:26;;;;;;;0.70;0.10;;;;;;;33.82;30.13;100089.72;5071780;28;20089;-92
2022/06/07 11:46:51;;;;;;;1.02;0.20;;;;;;;32.57;30.69;100097.28;5067734;28;20036;-91
2022/06/07 11:49:23;;;;;;;1.10;0.10;;;;;;;33.11;29.81;100087.41;5068222;28;20029;-92
2022/06/07 11:52:01;;;;;;;0.50;0.20;;;;;;;33.20;31.00;100088.56;5065389;28;20031;-92
2022/06/07 11:54:53;;;;;;;0.65;0.10;;;;;;;34.06;30.78;100078.34;5061319;28;20037;-93
2022/06/07 11:57:33;;;;;;;1.15;0.08;;;;;;;34.03;31.22;100081.63;5058385;28;20029;-94
2022/06/07 12:00:19;;;;;;;0.35;0.20;;;;;;;33.65;32.08;100084.50;5039996;28;20081;-92